createdAt,value
2023-01-06T00:00:28.707Z,79.17
2023-01-06T00:03:17.803Z,79.15
2023-01-06T00:06:04.505Z,79.57
2023-01-06T00:08:53.565Z,80.20
2023-01-06T00:11:42.575Z,80.46
2023-01-06T00:14:31.523Z,80.36
2023-01-06T00:17:20.658Z,79.21
2023-01-06T00:20:03.015Z,78.64
2023-01-06T00:22:53.666Z,78.59
2023-01-06T00:25:41.852Z,78.37
2023-01-06T00:28:24.527Z,78.05
2023-01-06T00:31:19.333Z,79.07
2023-01-06T00:34:04.527Z,78.78
2023-01-06T00:37:02.441Z,79.21
2023-01-06T00:39:51.604Z,77.87
2023-01-06T00:42:33.934Z,77.98
2023-01-06T00:45:22.551Z,77.85
2023-01-06T00:48:04.852Z,78.01
2023-01-06T00:50:53.520Z,78.70
2023-01-06T00:53:35.880Z,79.32
2023-01-06T00:56:24.927Z,78.92
2023-01-06T00:59:06.804Z,78.11
2023-01-06T01:01:56.669Z,78.10
2023-01-06T01:04:38.870Z,77.42
2023-01-06T01:07:27.521Z,76.96
2023-01-06T01:10:09.825Z,76.86
2023-01-06T01:13:01.577Z,77.75
2023-01-06T01:15:43.828Z,77.87
2023-01-06T01:18:33.525Z,77.56
2023-01-06T01:21:15.856Z,78.02
2023-01-06T01:24:04.495Z,78.79
2023-01-06T01:26:47.844Z,79.03
2023-01-06T01:29:36.548Z,78.69
2023-01-06T01:32:19.199Z,78.66
2023-01-06T01:35:08.594Z,78.82
2023-01-06T01:37:50.844Z,78.15
2023-01-06T01:40:39.569Z,77.95
2023-01-06T01:43:22.840Z,77.09
2023-01-06T01:46:11.569Z,78.20
2023-01-06T01:49:00.518Z,77.78
2023-01-06T01:51:47.063Z,77.85
2023-01-06T01:54:42.593Z,77.54
2023-01-06T01:57:33.974Z,77.39
2023-01-06T02:00:23.357Z,77.79
2023-01-06T02:03:13.887Z,77.18
2023-01-06T02:06:03.476Z,77.44
2023-01-06T02:09:07.822Z,77.16
2023-01-06T02:11:51.417Z,76.89
2023-01-06T02:14:40.867Z,77.97
2023-01-06T02:17:43.560Z,77.64
2023-01-06T02:20:43.874Z,77.81
2023-01-06T02:23:31.528Z,78.44
2023-01-06T02:26:30.350Z,78.52
2023-01-06T02:29:44.824Z,77.93
2023-01-06T02:32:29.571Z,78.29
2023-01-06T02:35:43.544Z,78.10
2023-01-06T02:38:31.779Z,77.83
2023-01-06T02:41:26.458Z,77.40
2023-01-06T02:44:23.888Z,77.45
2023-01-06T02:47:25.569Z,77.49
2023-01-06T02:50:23.803Z,77.61
2023-01-06T02:53:19.518Z,77.17
2023-01-06T02:56:04.865Z,77.19
2023-01-06T02:59:19.513Z,78.05
2023-01-06T03:02:04.003Z,76.88
2023-01-06T03:04:58.443Z,76.99
2023-01-06T03:07:41.911Z,76.21
2023-01-06T03:10:33.344Z,76.79
2023-01-06T03:13:40.799Z,76.76
2023-01-06T03:16:29.414Z,76.65
2023-01-06T03:19:11.764Z,76.43
2023-01-06T03:22:03.525Z,76.91
2023-01-06T03:24:47.282Z,76.83
2023-01-06T03:27:38.453Z,76.40
2023-01-06T03:30:21.720Z,76.33
2023-01-06T03:33:19.500Z,76.24
2023-01-06T03:36:32.527Z,76.78
2023-01-06T03:39:30.770Z,76.43
2023-01-06T03:42:51.439Z,76.53
2023-01-06T03:46:16.473Z,76.20
2023-01-06T03:49:10.447Z,76.32
2023-01-06T03:52:16.515Z,76.80
2023-01-06T03:55:16.821Z,76.89
2023-01-06T03:58:08.364Z,77.90
2023-01-06T04:00:57.544Z,77.41
2023-01-06T04:03:40.843Z,76.98
2023-01-06T04:06:29.444Z,77.28
2023-01-06T04:09:19.780Z,77.98
2023-01-06T04:12:20.575Z,77.92
2023-01-06T04:15:09.405Z,77.01
2023-01-06T04:17:55.489Z,77.69
2023-01-06T04:20:47.440Z,77.36
2023-01-06T04:23:35.804Z,77.29
2023-01-06T04:26:24.457Z,77.35
2023-01-06T04:29:07.817Z,77.56
2023-01-06T04:31:57.480Z,76.94
2023-01-06T04:34:39.834Z,77.63
2023-01-06T04:37:37.414Z,77.61
2023-01-06T04:40:26.386Z,76.62
2023-01-06T04:43:08.888Z,76.47
2023-01-06T04:45:57.583Z,77.13
2023-01-06T04:48:39.860Z,77.28
2023-01-06T04:51:28.488Z,76.27
2023-01-06T04:54:10.711Z,75.66
2023-01-06T04:56:59.477Z,75.51
2023-01-06T04:59:41.806Z,75.75
2023-01-06T05:02:30.585Z,76.19
2023-01-06T05:05:12.776Z,76.50
2023-01-06T05:08:04.715Z,76.33
2023-01-06T05:10:53.398Z,77.27
2023-01-06T05:13:43.749Z,77.50
2023-01-06T05:16:37.573Z,77.65
2023-01-06T05:19:19.663Z,76.99
2023-01-06T05:22:08.512Z,76.94
2023-01-06T05:24:57.411Z,76.33
2023-01-06T05:27:39.778Z,77.24
2023-01-06T05:30:28.520Z,77.47
2023-01-06T05:33:10.859Z,77.98
2023-01-06T05:36:09.478Z,77.33
2023-01-06T05:39:09.367Z,77.28
2023-01-06T05:41:58.406Z,77.21
2023-01-06T05:44:40.928Z,76.61
2023-01-06T05:47:29.519Z,75.56
2023-01-06T05:50:12.749Z,76.18
2023-01-06T05:53:01.491Z,76.36
2023-01-06T05:55:50.433Z,75.91
2023-01-06T05:58:41.598Z,74.78
2023-01-06T06:01:29.805Z,75.32
2023-01-06T06:04:21.377Z,74.41
2023-01-06T06:07:03.879Z,75.04
2023-01-06T06:09:52.355Z,75.52
2023-01-06T06:12:34.893Z,75.89
2023-01-06T06:15:23.524Z,73.74
2023-01-06T06:18:05.904Z,73.65
2023-01-06T06:20:54.541Z,74.45
2023-01-06T06:23:37.796Z,74.20
2023-01-06T06:26:26.561Z,72.77
2023-01-06T06:29:08.816Z,73.55
2023-01-06T06:31:57.509Z,72.86
2023-01-06T06:34:39.835Z,73.35
2023-01-06T06:37:28.502Z,71.18
2023-01-06T06:40:10.689Z,71.04
2023-01-06T06:43:00.536Z,70.74
2023-01-06T06:45:42.733Z,71.81
2023-01-06T06:48:31.563Z,72.20
2023-01-06T06:51:18.002Z,73.02
2023-01-06T06:54:06.455Z,71.84
2023-01-06T06:56:48.692Z,71.45
2023-01-06T06:59:37.560Z,69.90
2023-01-06T07:02:19.962Z,70.03
2023-01-06T07:05:08.510Z,71.22
2023-01-06T07:07:51.771Z,71.45
2023-01-06T07:10:41.601Z,70.43
2023-01-06T07:13:23.791Z,69.61
2023-01-06T07:16:13.663Z,69.29
2023-01-06T07:18:55.684Z,68.46
2023-01-06T07:21:46.459Z,67.83
2023-01-06T07:24:28.647Z,68.05
2023-01-06T07:27:17.371Z,68.67
2023-01-06T07:30:06.412Z,69.90
2023-01-06T07:32:48.727Z,68.79
2023-01-06T07:35:37.458Z,69.59
2023-01-06T07:38:32.341Z,69.03
2023-01-06T07:41:21.488Z,67.02
2023-01-06T07:44:17.185Z,68.01
2023-01-06T07:46:59.663Z,67.92
2023-01-06T07:49:48.450Z,66.89
2023-01-06T07:52:36.745Z,67.35
2023-01-06T07:55:19.498Z,66.71
2023-01-06T07:58:13.351Z,66.39
2023-01-06T08:01:02.513Z,65.47
2023-01-06T08:03:44.649Z,65.78
2023-01-06T08:06:33.393Z,65.97
2023-01-06T08:09:21.739Z,65.93
2023-01-06T08:12:04.443Z,65.52
2023-01-06T08:14:52.788Z,65.43
2023-01-06T08:17:34.767Z,66.36
2023-01-06T08:20:22.837Z,64.87
2023-01-06T08:23:06.542Z,63.72
2023-01-06T08:25:54.753Z,63.86
2023-01-06T08:28:37.425Z,63.85
2023-01-06T08:31:28.374Z,63.23
2023-01-06T08:34:12.579Z,64.68
2023-01-06T08:37:01.491Z,63.72
2023-01-06T08:39:57.275Z,63.27
2023-01-06T08:42:46.433Z,63.47
2023-01-06T08:45:28.848Z,64.84
2023-01-06T08:48:17.307Z,64.74
2023-01-06T08:51:09.455Z,64.83
2023-01-06T08:53:58.786Z,64.54
2023-01-06T08:56:42.415Z,62.97
2023-01-06T08:59:30.772Z,62.74
2023-01-06T09:02:12.475Z,63.33
2023-01-06T09:05:01.608Z,64.08
2023-01-06T09:07:50.433Z,64.92
2023-01-06T09:10:32.624Z,63.72
2023-01-06T09:13:21.343Z,63.93
2023-01-06T09:16:13.723Z,62.43
2023-01-06T09:18:57.439Z,61.82
2023-01-06T09:21:47.167Z,63.42
2023-01-06T09:24:29.333Z,63.82
2023-01-06T09:27:17.722Z,64.25
2023-01-06T09:30:00.476Z,64.08
2023-01-06T09:32:42.653Z,64.85
2023-01-06T09:35:31.526Z,64.58
2023-01-06T09:38:27.293Z,64.43
2023-01-06T09:41:45.416Z,64.85
2023-01-06T09:44:40.781Z,63.88
2023-01-06T09:47:37.382Z,65.31
2023-01-06T09:50:52.411Z,64.02
2023-01-06T09:53:47.255Z,63.81
2023-01-06T09:56:39.364Z,64.79
2023-01-06T09:59:35.746Z,64.61
2023-01-06T10:02:35.484Z,65.28
2023-01-06T10:05:27.549Z,65.21
2023-01-06T10:08:22.417Z,64.34
2023-01-06T10:11:17.086Z,64.46
2023-01-06T10:14:09.454Z,64.67
2023-01-06T10:17:03.006Z,65.74
2023-01-06T10:20:09.459Z,65.78
2023-01-06T10:23:04.723Z,65.06
2023-01-06T10:25:54.379Z,66.29
2023-01-06T10:28:46.389Z,66.03
2023-01-06T10:31:36.841Z,66.03
2023-01-06T10:34:34.354Z,65.74
2023-01-06T10:37:44.429Z,66.66
2023-01-06T10:40:44.344Z,67.00
2023-01-06T10:43:32.868Z,66.82
2023-01-06T10:46:15.303Z,67.20
2023-01-06T10:49:03.674Z,67.02
2023-01-06T10:51:53.428Z,67.33
2023-01-06T10:54:43.591Z,67.85
2023-01-06T10:57:33.325Z,67.42
2023-01-06T11:00:26.377Z,67.56
2023-01-06T11:03:32.373Z,68.74
2023-01-06T11:06:24.407Z,67.83
2023-01-06T11:09:06.704Z,68.03
2023-01-06T11:12:00.359Z,68.28
2023-01-06T11:14:43.732Z,69.13
2023-01-06T11:17:33.319Z,68.92
2023-01-06T11:20:24.419Z,70.20
2023-01-06T11:23:30.817Z,69.46
2023-01-06T11:26:26.299Z,70.05
2023-01-06T11:29:53.293Z,69.91
2023-01-06T11:32:36.471Z,69.64
2023-01-06T11:35:35.429Z,69.88
2023-01-06T11:38:26.407Z,70.31
2023-01-06T11:41:17.686Z,70.67
2023-01-06T11:44:29.428Z,69.87
2023-01-06T11:47:22.466Z,70.56
2023-01-06T11:50:05.380Z,68.24
2023-01-06T11:52:54.375Z,69.52
2023-01-06T11:55:43.314Z,70.48
2023-01-06T11:58:47.387Z,71.87
2023-01-06T12:01:34.339Z,71.42
2023-01-06T12:05:00.244Z,71.17
2023-01-06T12:07:58.260Z,71.84
2023-01-06T12:10:44.403Z,71.90
2023-01-06T12:13:28.554Z,71.96
2023-01-06T12:16:30.610Z,71.60
2023-01-06T12:19:28.734Z,71.49
2023-01-06T12:22:11.398Z,71.29
2023-01-06T12:25:03.276Z,71.25
2023-01-06T12:27:58.349Z,71.12
2023-01-06T12:30:59.024Z,71.13
2023-01-06T12:34:02.855Z,71.06
2023-01-06T12:36:50.655Z,71.59
2023-01-06T12:39:53.475Z,70.24
2023-01-06T12:42:44.787Z,70.77
2023-01-06T12:45:56.594Z,70.88
2023-01-06T12:48:45.612Z,70.47
2023-01-06T12:51:52.383Z,71.13
2023-01-06T12:54:36.786Z,71.51
2023-01-06T12:57:47.295Z,71.37
2023-01-06T13:00:45.473Z,71.45
2023-01-06T13:04:11.526Z,72.34
2023-01-06T13:07:11.820Z,71.87
2023-01-06T13:10:33.362Z,72.58
2023-01-06T13:13:31.218Z,72.19
2023-01-06T13:16:40.364Z,73.00
2023-01-06T13:19:56.336Z,73.24
2023-01-06T13:22:56.529Z,71.71
2023-01-06T13:26:19.287Z,73.52
2023-01-06T13:29:08.369Z,73.51
2023-01-06T13:32:27.730Z,72.71
2023-01-06T13:35:35.285Z,73.48
2023-01-06T13:38:39.189Z,74.82
2023-01-06T13:41:29.322Z,75.39
2023-01-06T13:44:17.782Z,75.34
2023-01-06T13:47:27.352Z,74.69
2023-01-06T13:50:09.756Z,75.34
2023-01-06T13:52:59.225Z,74.61
2023-01-06T13:55:51.372Z,75.25
2023-01-06T13:58:33.563Z,74.57
2023-01-06T14:01:36.446Z,75.98
2023-01-06T14:04:43.916Z,74.31
2023-01-06T14:07:51.409Z,74.82
2023-01-06T14:10:39.628Z,75.52
2023-01-06T14:13:27.413Z,76.40
2023-01-06T14:16:20.316Z,75.66
2023-01-06T14:19:33.273Z,76.09
2023-01-06T14:22:28.524Z,76.73
2023-01-06T14:25:16.370Z,76.47
2023-01-06T14:28:01.347Z,76.64
2023-01-06T14:30:51.369Z,76.22
2023-01-06T14:33:50.658Z,75.73
2023-01-06T14:36:34.402Z,75.86
2023-01-06T14:39:37.235Z,76.92
2023-01-06T14:42:42.282Z,76.74
2023-01-06T14:45:33.611Z,75.91
2023-01-06T14:48:26.298Z,76.72
2023-01-06T14:51:08.682Z,77.21
2023-01-06T14:54:12.232Z,76.94
2023-01-06T14:57:07.265Z,76.60
2023-01-06T15:00:37.411Z,76.63
2023-01-06T15:03:30.713Z,75.82
2023-01-06T15:06:30.285Z,75.90
2023-01-06T15:09:21.368Z,75.70
2023-01-06T15:12:10.314Z,74.57
2023-01-06T15:14:52.624Z,74.96
2023-01-06T15:17:41.307Z,74.38
2023-01-06T15:20:23.711Z,74.13
2023-01-06T15:23:13.358Z,74.97
2023-01-06T15:26:10.252Z,75.58
2023-01-06T15:29:11.352Z,76.39
2023-01-06T15:31:57.297Z,75.17
2023-01-06T15:34:50.322Z,75.98
2023-01-06T15:37:42.399Z,75.58
2023-01-06T15:40:38.400Z,74.91
2023-01-06T15:43:31.633Z,74.47
2023-01-06T15:46:21.046Z,75.27
2023-01-06T15:49:12.333Z,75.58
2023-01-06T15:52:08.882Z,75.73
2023-01-06T15:54:58.686Z,75.75
2023-01-06T15:57:53.633Z,76.23
2023-01-06T16:01:04.272Z,75.66
2023-01-06T16:03:54.615Z,75.16
2023-01-06T16:06:48.535Z,74.94
2023-01-06T16:09:36.956Z,75.34
2023-01-06T16:12:30.655Z,75.54
2023-01-06T16:15:42.848Z,75.03
2023-01-06T16:18:45.567Z,75.06
2023-01-06T16:21:33.639Z,75.04
2023-01-06T16:24:38.669Z,75.56
2023-01-06T16:27:21.317Z,75.40
2023-01-06T16:30:21.288Z,76.09
2023-01-06T16:33:06.053Z,76.24
2023-01-06T16:36:00.370Z,76.21
2023-01-06T16:38:46.956Z,76.26
2023-01-06T16:41:36.458Z,76.21
2023-01-06T16:44:19.004Z,76.06
2023-01-06T16:47:10.209Z,76.71
2023-01-06T16:49:52.927Z,76.67
2023-01-06T16:52:42.503Z,76.83
2023-01-06T16:55:27.775Z,76.50
2023-01-06T16:58:37.290Z,76.37
2023-01-06T17:01:29.519Z,77.19
2023-01-06T17:04:20.697Z,75.98
2023-01-06T17:07:09.467Z,76.49
2023-01-06T17:09:51.906Z,76.54
2023-01-06T17:12:58.570Z,75.89
2023-01-06T17:15:47.747Z,76.48
2023-01-06T17:18:38.349Z,76.86
2023-01-06T17:21:43.207Z,77.44
2023-01-06T17:24:31.381Z,76.49
2023-01-06T17:27:31.403Z,76.38
2023-01-06T17:30:32.363Z,76.82
2023-01-06T17:33:22.881Z,76.36
2023-01-06T17:36:07.274Z,76.95
2023-01-06T17:39:04.535Z,76.96
2023-01-06T17:41:54.248Z,77.26
2023-01-06T17:44:49.918Z,76.45
2023-01-06T17:47:51.473Z,76.13
2023-01-06T17:50:41.700Z,75.60
2023-01-06T17:54:02.630Z,75.90
2023-01-06T17:56:51.685Z,75.99
2023-01-06T17:59:40.506Z,76.00
2023-01-06T18:02:38.563Z,74.66
2023-01-06T18:05:33.705Z,75.54
2023-01-06T18:08:15.880Z,76.77
2023-01-06T18:11:05.377Z,76.64
2023-01-06T18:13:58.530Z,75.28
2023-01-06T18:16:49.793Z,76.39
2023-01-06T18:19:43.955Z,76.07
2023-01-06T18:22:31.876Z,76.50
2023-01-06T18:25:32.751Z,75.54
2023-01-06T18:28:27.002Z,76.23
2023-01-06T18:31:24.849Z,75.61
2023-01-06T18:34:31.585Z,75.85
2023-01-06T18:37:22.194Z,76.18
2023-01-06T18:40:16.715Z,77.28
2023-01-06T18:43:01.176Z,77.98
2023-01-06T18:45:50.385Z,77.61
2023-01-06T18:48:39.453Z,77.21
2023-01-06T18:51:31.721Z,77.90
2023-01-06T18:54:26.248Z,78.13
2023-01-06T18:57:32.391Z,77.76
2023-01-06T19:00:38.968Z,77.23
2023-01-06T19:03:44.239Z,77.75
2023-01-06T19:06:36.610Z,77.28
2023-01-06T19:09:31.731Z,76.80
2023-01-06T19:12:19.274Z,78.27
2023-01-06T19:15:27.639Z,77.53
2023-01-06T19:18:12.272Z,77.37
2023-01-06T19:21:01.672Z,77.98
2023-01-06T19:23:43.724Z,78.06
2023-01-06T19:26:53.825Z,77.73
2023-01-06T19:29:41.170Z,78.67
2023-01-06T19:32:32.453Z,78.35
2023-01-06T19:35:28.006Z,78.65
2023-01-06T19:38:43.554Z,78.47
2023-01-06T19:41:38.806Z,79.48
2023-01-06T19:44:22.600Z,78.85
2023-01-06T19:47:18.605Z,78.90
2023-01-06T19:50:11.415Z,79.00
2023-01-06T19:52:59.119Z,78.31
2023-01-06T19:55:49.259Z,79.20
2023-01-06T19:58:36.553Z,79.58
2023-01-06T20:01:28.487Z,79.42
2023-01-06T20:04:29.707Z,79.40
2023-01-06T20:07:18.284Z,79.12
2023-01-06T20:10:06.701Z,78.83
2023-01-06T20:12:49.305Z,78.91
2023-01-06T20:15:37.763Z,79.18
2023-01-06T20:18:20.369Z,79.45
2023-01-06T20:21:09.549Z,79.06
2023-01-06T20:23:52.222Z,79.56
2023-01-06T20:26:35.627Z,80.21
2023-01-06T20:29:24.306Z,78.74
2023-01-06T20:32:13.562Z,78.85
2023-01-06T20:34:55.294Z,78.10
2023-01-06T20:37:37.599Z,78.50
2023-01-06T20:40:27.243Z,78.04
2023-01-06T20:43:09.581Z,77.81
2023-01-06T20:45:58.309Z,79.08
2023-01-06T20:48:47.263Z,79.55
2023-01-06T20:51:29.625Z,78.07
2023-01-06T20:54:18.168Z,78.61
2023-01-06T20:57:00.582Z,78.51
2023-01-06T20:59:49.311Z,79.88
2023-01-06T21:02:31.662Z,79.53
2023-01-06T21:05:20.196Z,80.12
2023-01-06T21:08:09.193Z,80.60
2023-01-06T21:10:57.505Z,79.98
2023-01-06T21:13:39.266Z,79.27
2023-01-06T21:16:27.657Z,80.45
2023-01-06T21:19:10.298Z,80.14
2023-01-06T21:21:59.201Z,80.71
2023-01-06T21:24:41.589Z,80.36
2023-01-06T21:27:30.289Z,79.77
2023-01-06T21:30:13.560Z,79.69
2023-01-06T21:33:02.358Z,79.89
2023-01-06T21:35:44.585Z,80.62
2023-01-06T21:38:33.286Z,80.25
2023-01-06T21:41:39.737Z,80.35
2023-01-06T21:44:22.284Z,80.58
2023-01-06T21:47:04.995Z,80.25
2023-01-06T21:49:54.311Z,80.08
2023-01-06T21:52:44.479Z,80.29
2023-01-06T21:55:27.335Z,80.28
2023-01-06T21:58:16.227Z,78.88
2023-01-06T22:01:05.402Z,79.58
2023-01-06T22:03:47.480Z,79.04
2023-01-06T22:06:37.295Z,79.63
2023-01-06T22:09:29.549Z,79.24
2023-01-06T22:12:14.137Z,79.50
2023-01-06T22:15:03.579Z,79.48
2023-01-06T22:17:46.316Z,79.79
2023-01-06T22:20:32.217Z,79.78
2023-01-06T22:23:26.204Z,79.80
2023-01-06T22:26:08.628Z,79.87
2023-01-06T22:28:57.370Z,79.84
2023-01-06T22:31:41.696Z,80.28
2023-01-06T22:34:30.199Z,80.07
2023-01-06T22:37:19.187Z,79.60
2023-01-06T22:40:14.124Z,79.66
2023-01-06T22:43:04.246Z,79.78
2023-01-06T22:45:46.510Z,79.48
2023-01-06T22:48:35.365Z,79.52
2023-01-06T22:51:24.361Z,79.78
2023-01-06T22:54:06.618Z,80.06
2023-01-06T22:56:55.302Z,79.48
2023-01-06T22:59:37.483Z,79.59
2023-01-06T23:02:26.471Z,79.31
2023-01-06T23:05:15.581Z,79.85
2023-01-06T23:07:57.271Z,79.91
2023-01-06T23:10:46.231Z,79.56
2023-01-06T23:13:28.565Z,80.30
2023-01-06T23:16:19.357Z,79.14
2023-01-06T23:19:08.244Z,79.00
2023-01-06T23:21:56.541Z,79.25
2023-01-06T23:24:38.130Z,79.96
2023-01-06T23:27:26.613Z,79.18
2023-01-06T23:30:09.368Z,79.20
2023-01-06T23:32:57.577Z,79.44
2023-01-06T23:35:40.267Z,79.94
2023-01-06T23:38:28.555Z,79.51
2023-01-06T23:41:28.292Z,79.23
2023-01-06T23:44:22.526Z,79.12
2023-01-06T23:47:04.161Z,79.60
2023-01-06T23:49:52.621Z,79.52
2023-01-06T23:52:35.179Z,79.62
2023-01-06T23:55:24.541Z,79.43
2023-01-06T23:58:06.193Z,79.91
